Time;durP1;ratioP1;P1;durP2;ratioP2;P2;SDS_P1;SDS_P2;PMS_P1;PMS_P2;Temp;Humidity;BMP_temperature;BMP_pressure;BME280_temperature;BME280_humidity;BME280_pressure;Samples;Min_cycle;Max_cycle;Signal;HPM_P1;HPM_P2
2021/09/24 00:00:24;;;;;;;2.08;1.88;;;;;;;29.46;24.23;97215.66;5073906;28;20036;-83
2021/09/24 00:02:50;;;;;;;6.15;2.95;;;;;;;29.80;23.81;97216.97;5103240;28;20058;-83
2021/09/24 00:05:17;;;;;;;3.10;1.88;;;;;;;30.43;23.54;97229.38;5073792;28;20029;-83
2021/09/24 00:07:43;;;;;;;2.15;1.73;;;;;;;30.05;23.76;97227.59;5073502;28;20031;-83
2021/09/24 00:10:10;;;;;;;3.45;1.80;;;;;;;29.58;24.50;97244.88;5072642;28;20060;-83
2021/09/24 00:12:38;;;;;;;1.92;1.73;;;;;;;30.00;24.01;97237.56;5074165;28;20511;-84
2021/09/24 00:15:08;;;;;;;2.22;1.90;;;;;;;30.03;24.31;97233.75;5074070;28;20083;-83
2021/09/24 00:17:34;;;;;;;2.42;1.80;;;;;;;30.35;24.02;97233.91;5074435;28;20078;-83
2021/09/24 00:20:00;;;;;;;5.75;1.77;;;;;;;30.04;24.67;97223.97;5072479;28;20387;-83
2021/09/24 00:22:26;;;;;;;3.38;1.55;;;;;;;31.08;23.35;97224.91;5074476;28;20086;-83
2021/09/24 00:24:52;;;;;;;2.55;1.75;;;;;;;30.54;24.02;97221.78;5073849;28;20032;-84
2021/09/24 00:27:18;;;;;;;4.15;1.70;;;;;;;30.57;23.98;97215.09;5073407;28;20039;-84
2021/09/24 00:29:44;;;;;;;3.63;1.50;;;;;;;30.50;24.22;97223.25;5070385;28;20349;-83
2021/09/24 00:32:10;;;;;;;2.95;1.90;;;;;;;31.15;23.53;97219.56;5069093;28;20101;-84
2021/09/24 00:34:36;;;;;;;1.38;1.25;;;;;;;30.86;24.03;97230.31;5073444;28;20036;-83
2021/09/24 00:37:03;;;;;;;2.17;1.58;;;;;;;31.13;23.63;97232.69;5073962;28;20047;-83
2021/09/24 00:39:29;;;;;;;2.63;1.40;;;;;;;30.59;24.39;97221.06;5073894;28;20037;-83
2021/09/24 00:41:55;;;;;;;1.60;1.08;;;;;;;31.25;24.01;97228.66;5074097;28;20099;-83
2021/09/24 00:44:38;;;;;;;3.42;1.52;;;;;;;31.33;23.71;97233.34;5073444;28;20104;-83
2021/09/24 00:47:04;;;;;;;1.30;1.20;;;;;;;31.51;23.49;97229.38;5073710;28;20040;-83
2021/09/24 00:49:30;;;;;;;2.00;1.52;;;;;;;30.90;23.76;97248.69;5071014;28;20029;-83
2021/09/24 00:51:57;;;;;;;1.52;1.42;;;;;;;30.66;24.27;97237.63;5072776;28;20132;-83
2021/09/24 00:54:23;;;;;;;3.05;1.80;;;;;;;29.92;24.96;97255.47;5074757;28;20051;-83
2021/09/24 00:56:52;;;;;;;1.80;1.48;;;;;;;29.58;25.86;97271.13;5073905;28;20032;-84
2021/09/24 00:59:19;;;;;;;1.83;1.35;;;;;;;29.77;25.80;97275.31;5064917;28;20476;-83
2021/09/24 01:01:45;;;;;;;1.55;1.33;;;;;;;30.78;24.83;97267.59;5073370;28;20036;-83
2021/09/24 01:04:12;;;;;;;1.55;1.38;;;;;;;30.30;25.18;97268.56;5076223;28;20045;-83
2021/09/24 01:06:42;;;;;;;2.80;1.98;;;;;;;28.13;28.20;97261.22;5074474;28;20388;-83
2021/09/24 01:09:09;;;;;;;3.47;2.10;;;;;;;29.13;27.26;97269.59;5072528;28;20067;-83
2021/09/24 01:11:38;;;;;;;1.92;1.70;;;;;;;29.26;27.01;97263.69;5071602;28;20125;-83
2021/09/24 01:14:05;;;;;;;3.20;1.90;;;;;;;29.68;26.45;97257.66;5070568;28;20032;-82
2021/09/24 01:16:31;;;;;;;4.00;1.60;;;;;;;30.22;25.60;97237.06;5072380;28;20087;-83
2021/09/24 01:18:58;;;;;;;2.97;1.75;;;;;;;29.57;26.45;97232.03;5072485;28;20487;-83
2021/09/24 01:21:25;;;;;;;1.75;1.55;;;;;;;29.36;26.35;97245.31;5072853;28;20090;-83
2021/09/24 01:23:51;;;;;;;3.38;1.60;;;;;;;28.46;27.66;97230.06;5071869;28;20037;-83
2021/09/24 01:26:17;;;;;;;2.50;2.30;;;;;;;28.12;27.96;97242.75;5072746;28;20056;-83
2021/09/24 01:28:44;;;;;;;3.03;2.08;;;;;;;28.70;27.41;97239.28;5073034;28;20098;-83
2021/09/24 01:31:15;;;;;;;2.30;1.63;;;;;;;28.46;27.37;97236.50;5069134;28;20093;-83
2021/09/24 01:33:45;;;;;;;1.90;1.70;;;;;;;28.75;26.67;97216.78;5072807;28;20484;-83
2021/09/24 01:36:12;;;;;;;2.63;2.35;;;;;;;28.75;27.04;97222.41;5071564;28;20036;-83
2021/09/24 01:38:39;;;;;;;2.22;1.63;;;;;;;28.72;27.21;97225.44;5086782;28;20028;-83
2021/09/24 01:41:06;;;;;;;8.10;1.83;;;;;;;29.87;25.61;97222.19;5079058;28;20024;-83
2021/09/24 01:43:33;;;;;;;1.45;1.35;;;;;;;30.79;23.94;97225.88;5073138;28;20113;-83
2021/09/24 01:46:00;;;;;;;1.95;1.70;;;;;;;30.38;24.40;97224.41;5077080;28;20121;-83
2021/09/24 01:48:26;;;;;;;1.73;1.50;;;;;;;30.31;24.57;97219.94;5076174;28;20493;-83
2021/09/24 01:50:54;;;;;;;3.15;1.77;;;;;;;30.17;25.06;97220.78;5070485;28;20037;-83
2021/09/24 01:53:20;;;;;;;1.60;1.50;;;;;;;30.08;24.72;97223.78;5071776;28;20123;-84
2021/09/24 01:55:46;;;;;;;3.20;1.52;;;;;;;30.44;24.64;97226.03;5072112;28;20032;-83
2021/09/24 01:58:13;;;;;;;1.40;1.20;;;;;;;30.30;24.52;97226.84;5071804;28;20097;-84
2021/09/24 02:00:40;;;;;;;1.40;1.30;;;;;;;29.96;24.99;97222.84;5070003;28;20420;-84
2021/09/24 02:03:06;;;;;;;1.58;1.42;;;;;;;31.23;23.79;97211.34;5071907;28;20044;-83
2021/09/24 02:05:32;;;;;;;2.45;1.20;;;;;;;31.33;23.33;97215.56;5072470;28;20392;-84
2021/09/24 02:07:58;;;;;;;1.40;1.30;;;;;;;31.04;23.69;97204.50;5067166;28;20028;-83
2021/09/24 02:10:25;;;;;;;2.20;1.23;;;;;;;30.24;24.54;97216.75;5071379;28;20116;-83
2021/09/24 02:12:51;;;;;;;1.63;1.33;;;;;;;30.13;24.56;97208.88;5068094;28;20435;-83
2021/09/24 02:15:17;;;;;;;2.70;1.25;;;;;;;29.52;25.35;97227.06;5070513;28;20044;-83
2021/09/24 02:17:43;;;;;;;2.05;1.65;;;;;;;29.11;25.55;97232.56;5068553;28;20039;-83
2021/09/24 02:20:10;;;;;;;5.00;1.70;;;;;;;29.08;26.20;97238.44;5070907;28;20043;-83
2021/09/24 02:22:37;;;;;;;1.77;1.60;;;;;;;29.13;25.76;97235.66;5076546;28;20033;-83
2021/09/24 02:25:04;;;;;;;2.53;1.70;;;;;;;29.00;25.64;97237.25;5070530;28;20111;-84
2021/09/24 02:27:30;;;;;;;2.47;1.67;;;;;;;28.48;26.27;97228.31;5071860;28;20518;-83
2021/09/24 02:29:56;;;;;;;2.20;1.90;;;;;;;28.23;26.66;97226.03;5072301;28;20067;-84
2021/09/24 02:32:22;;;;;;;4.18;1.67;;;;;;;29.26;25.79;97241.06;5070862;28;20041;-84
2021/09/24 02:34:48;;;;;;;3.53;1.60;;;;;;;28.31;26.42;97232.84;5083293;28;20025;-84
2021/09/24 02:37:14;;;;;;;2.53;1.80;;;;;;;28.79;26.32;97241.22;5072895;28;20104;-84
2021/09/24 02:39:41;;;;;;;2.00;1.80;;;;;;;28.91;26.37;97235.31;5072123;28;20052;-83
2021/09/24 02:42:07;;;;;;;3.08;1.80;;;;;;;28.09;27.26;97249.34;5072338;28;20043;-83
2021/09/24 02:44:33;;;;;;;1.88;1.60;;;;;;;28.41;27.11;97242.03;5072761;28;20119;-84
2021/09/24 02:47:02;;;;;;;1.83;1.73;;;;;;;28.20;26.81;97241.09;5073613;28;20028;-83
2021/09/24 02:49:28;;;;;;;2.40;1.73;;;;;;;28.53;27.12;97243.81;5059537;28;20036;-84
2021/09/24 02:51:54;;;;;;;3.90;1.75;;;;;;;28.29;27.12;97257.97;5069047;28;20036;-84
2021/09/24 02:54:23;;;;;;;4.25;1.80;;;;;;;27.88;28.35;97239.91;5071786;28;20057;-83
2021/09/24 02:56:49;;;;;;;2.08;1.85;;;;;;;27.36;28.34;97265.81;5071911;28;20032;-84
2021/09/24 02:59:15;;;;;;;2.13;1.92;;;;;;;27.74;28.13;97291.38;5073522;28;20068;-84
2021/09/24 03:01:41;;;;;;;3.03;2.05;;;;;;;27.69;28.43;97308.97;5070093;28;20040;-84
2021/09/24 03:04:07;;;;;;;1.92;1.63;;;;;;;25.93;31.22;97331.72;5071578;28;20411;-83
2021/09/24 03:06:33;;;;;;;3.20;1.80;;;;;;;25.91;31.82;97322.16;5072876;28;20066;-83
2021/09/24 03:08:59;;;;;;;1.75;1.58;;;;;;;26.22;31.33;97320.09;5071957;28;20040;-82
2021/09/24 03:11:25;;;;;;;2.65;1.58;;;;;;;25.19;33.11;97334.66;5071054;28;20036;-82
2021/09/24 03:13:51;;;;;;;2.00;1.50;;;;;;;24.52;34.96;97350.34;5069989;28;20484;-82
2021/09/24 03:16:19;;;;;;;3.38;1.20;;;;;;;24.55;35.12;97350.22;5067192;28;20028;-83
2021/09/24 03:18:47;;;;;;;2.92;0.90;;;;;;;24.71;35.97;97361.25;5069834;28;20029;-82
2021/09/24 03:21:14;;;;;;;2.55;1.00;;;;;;;25.36;35.11;97364.09;5068314;28;20114;-82
2021/09/24 03:23:40;;;;;;;2.10;0.90;;;;;;;25.77;34.97;97373.38;5071478;28;20496;-82
2021/09/24 03:26:06;;;;;;;1.67;0.70;;;;;;;25.84;33.87;97361.84;5071498;28;20048;-82
2021/09/24 03:28:32;;;;;;;2.65;1.02;;;;;;;26.29;33.35;97353.56;5071706;28;20111;-82
2021/09/24 03:30:58;;;;;;;3.53;1.27;;;;;;;26.25;33.35;97371.84;5069615;28;20447;-83
2021/09/24 03:33:24;;;;;;;1.52;0.73;;;;;;;27.02;31.97;97362.84;5070713;28;20044;-83
2021/09/24 03:35:50;;;;;;;0.90;0.68;;;;;;;27.16;31.65;97367.06;5071208;28;20036;-83
2021/09/24 03:38:16;;;;;;;0.88;0.77;;;;;;;27.25;31.34;97367.81;5071724;28;20060;-83
2021/09/24 03:40:42;;;;;;;0.75;0.60;;;;;;;27.89;30.72;97368.41;5070991;28;20051;-83
2021/09/24 03:43:08;;;;;;;0.85;0.45;;;;;;;27.82;30.40;97379.28;5070822;28;20044;-83
2021/09/24 03:45:34;;;;;;;0.47;0.40;;;;;;;28.24;29.74;97379.25;5071848;28;20500;-83
2021/09/24 03:48:01;;;;;;;0.95;0.47;;;;;;;27.33;31.04;97382.34;5067890;28;20043;-83
2021/09/24 03:50:27;;;;;;;2.22;0.40;;;;;;;26.59;31.86;97372.34;5067842;28;20566;-82
2021/09/24 03:52:53;;;;;;;0.63;0.40;;;;;;;27.86;30.07;97385.53;5066635;28;20048;-83
2021/09/24 03:55:20;;;;;;;2.05;0.57;;;;;;;26.66;31.86;97382.53;5069541;28;20405;-82
2021/09/24 03:57:47;;;;;;;3.08;0.60;;;;;;;26.81;31.19;97386.34;5069644;28;20049;-82
2021/09/24 04:00:13;;;;;;;1.00;0.70;;;;;;;26.26;32.11;97374.19;5067153;28;20036;-81
2021/09/24 04:02:40;;;;;;;1.75;0.57;;;;;;;26.29;32.04;97376.06;5063809;28;20048;-82
2021/09/24 04:05:07;;;;;;;0.40;0.40;;;;;;;27.03;30.64;97378.47;5065611;28;20044;-82
2021/09/24 04:07:33;;;;;;;2.30;0.63;;;;;;;26.92;31.02;97388.66;5069123;28;20029;-82
2021/09/24 04:09:59;;;;;;;0.85;0.40;;;;;;;27.34;30.17;97383.94;5070024;28;20043;-82
2021/09/24 04:12:25;;;;;;;1.88;0.50;;;;;;;27.59;29.97;97410.97;5067986;28;20032;-82
2021/09/24 04:14:51;;;;;;;0.85;0.40;;;;;;;27.64;29.76;97399.84;5064674;28;20385;-83
2021/09/24 04:17:17;;;;;;;1.15;0.30;;;;;;;27.67;29.55;97396.09;5067698;28;20420;-83
2021/09/24 04:19:43;;;;;;;1.88;0.40;;;;;;;27.03;30.44;97403.06;5067737;28;20503;-82
2021/09/24 04:22:09;;;;;;;1.10;0.70;;;;;;;27.16;30.05;97407.28;5069229;28;20060;-83
2021/09/24 04:24:37;;;;;;;1.38;0.40;;;;;;;27.35;29.53;97405.25;5066237;28;20068;-82
2021/09/24 04:27:03;;;;;;;2.15;0.63;;;;;;;27.82;28.73;97413.91;5073799;28;20551;-83
2021/09/24 04:29:30;;;;;;;1.23;0.60;;;;;;;27.88;28.67;97409.19;5074417;28;20491;-82
2021/09/24 04:31:56;;;;;;;1.92;0.38;;;;;;;27.14;29.92;97406.97;5066858;28;20412;-82
2021/09/24 04:34:22;;;;;;;0.98;0.55;;;;;;;25.90;31.79;97422.66;5072834;28;20551;-82
2021/09/24 04:36:48;;;;;;;1.77;0.60;;;;;;;25.58;32.48;97433.59;5074260;28;20029;-83
2021/09/24 04:39:14;;;;;;;1.52;0.77;;;;;;;25.96;31.86;97440.50;5073175;28;20067;-84
2021/09/24 04:41:40;;;;;;;1.33;0.63;;;;;;;26.88;30.33;97442.38;5072651;28;20383;-82
2021/09/24 04:44:06;;;;;;;0.98;0.50;;;;;;;27.30;29.46;97442.50;5071791;28;20039;-82
2021/09/24 04:46:33;;;;;;;1.88;0.60;;;;;;;26.29;30.95;97452.06;5070738;28;20112;-81
2021/09/24 04:48:59;;;;;;;2.80;0.68;;;;;;;25.98;31.44;97437.22;5067805;28;20043;-81
2021/09/24 04:51:25;;;;;;;2.75;0.70;;;;;;;25.55;32.05;97451.38;5071888;28;20032;-81
2021/09/24 04:53:51;;;;;;;2.72;0.60;;;;;;;25.54;31.77;97446.97;5073057;28;20084;-81
2021/09/24 04:56:17;;;;;;;1.08;0.80;;;;;;;25.18;32.20;97464.34;5069977;28;20507;-80
2021/09/24 04:58:43;;;;;;;1.70;0.70;;;;;;;26.17;30.34;97464.22;5074119;28;20029;-79
2021/09/24 05:01:10;;;;;;;5.38;1.00;;;;;;;26.54;29.10;97451.03;5073360;28;20044;-81
2021/09/24 05:03:36;;;;;;;3.03;0.80;;;;;;;26.49;29.31;97452.41;5070862;28;20551;-82
2021/09/24 05:06:02;;;;;;;2.30;0.60;;;;;;;26.81;28.91;97441.88;5073886;28;20400;-81
2021/09/24 05:08:28;;;;;;;1.45;0.80;;;;;;;25.49;31.08;97458.81;5068698;28;20078;-82
2021/09/24 05:10:54;;;;;;;5.07;1.60;;;;;;;25.17;31.87;97460.75;5071986;28;20060;-79
2021/09/24 05:13:20;;;;;;;1.92;0.85;;;;;;;25.63;30.69;97458.28;5071402;28;20086;-81
2021/09/24 05:15:46;;;;;;;2.10;0.75;;;;;;;26.41;29.74;97465.25;5072108;28;20126;-82
2021/09/24 05:18:12;;;;;;;2.65;1.00;;;;;;;26.25;29.99;97457.06;5071902;28;20045;-82
2021/09/24 05:20:38;;;;;;;3.90;0.88;;;;;;;26.22;29.79;97451.56;5073275;28;20041;-80
2021/09/24 05:23:04;;;;;;;1.13;0.82;;;;;;;26.55;29.09;97475.13;5073444;28;20281;-81
2021/09/24 05:25:30;;;;;;;1.42;0.80;;;;;;;26.24;29.68;97474.38;5072843;28;20094;-81
2021/09/24 05:27:56;;;;;;;2.35;0.82;;;;;;;26.23;29.54;97476.44;5074676;28;20032;-81
2021/09/24 05:30:23;;;;;;;3.72;0.80;;;;;;;26.51;28.85;97478.06;5073145;28;20028;-83
2021/09/24 05:32:49;;;;;;;5.40;0.95;;;;;;;26.70;28.80;97473.25;5073514;28;20033;-81
2021/09/24 05:35:15;;;;;;;1.90;0.80;;;;;;;26.73;28.51;97477.97;5074628;28;20086;-82
2021/09/24 05:37:42;;;;;;;3.58;0.90;;;;;;;26.16;29.25;97478.75;5074726;28;20037;-81
2021/09/24 05:40:09;;;;;;;3.67;0.75;;;;;;;26.64;29.00;97490.00;5072823;28;20037;-81
2021/09/24 05:42:35;;;;;;;3.50;0.70;;;;;;;27.48;27.94;97486.84;5065628;28;20078;-81
2021/09/24 05:45:02;;;;;;;1.75;0.65;;;;;;;27.09;28.19;97485.72;5073347;28;20168;-81
2021/09/24 05:47:28;;;;;;;3.97;0.90;;;;;;;27.08;27.91;97475.69;5073692;28;20119;-80
2021/09/24 05:49:55;;;;;;;2.72;0.98;;;;;;;26.13;29.21;97488.09;5074129;28;20043;-81
2021/09/24 05:52:21;;;;;;;1.48;0.80;;;;;;;26.25;29.48;97490.84;5073955;28;20028;-82
2021/09/24 05:54:47;;;;;;;5.35;0.77;;;;;;;26.05;29.32;97491.16;5074207;28;20053;-81
2021/09/24 05:57:13;;;;;;;1.63;0.80;;;;;;;25.84;29.60;97479.94;5073408;28;20132;-81
2021/09/24 05:59:39;;;;;;;3.15;0.70;;;;;;;25.93;29.93;97491.25;5073725;28;20072;-81
2021/09/24 06:02:05;;;;;;;4.03;1.17;;;;;;;26.01;29.38;97486.94;5065504;28;20067;-82
2021/09/24 06:04:32;;;;;;;5.03;0.73;;;;;;;26.33;29.24;97494.13;5070883;28;20047;-81
2021/09/24 06:06:58;;;;;;;2.53;0.70;;;;;;;25.40;30.95;97498.84;5073916;28;20037;-81
2021/09/24 06:09:24;;;;;;;3.47;0.90;;;;;;;25.19;30.70;97511.66;5052907;28;20036;-81
2021/09/24 06:11:50;;;;;;;5.25;1.00;;;;;;;25.47;30.01;97509.06;5062667;28;20024;-81
2021/09/24 06:14:16;;;;;;;2.42;0.70;;;;;;;25.96;29.38;97518.47;5072630;28;20032;-81
2021/09/24 06:16:42;;;;;;;4.50;0.70;;;;;;;25.66;29.76;97527.66;5067977;28;20404;-82
2021/09/24 06:19:09;;;;;;;1.70;0.90;;;;;;;25.64;29.33;97522.50;5073409;28;20125;-81
2021/09/24 06:21:36;;;;;;;1.92;0.70;;;;;;;26.42;28.75;97517.47;5060130;28;20071;-82
2021/09/24 06:24:03;;;;;;;4.03;0.93;;;;;;;25.99;29.34;97526.78;5053824;28;20060;-81
2021/09/24 06:26:29;;;;;;;3.30;0.98;;;;;;;25.03;30.63;97536.31;5055596;28;20079;-81
2021/09/24 06:28:55;;;;;;;4.07;1.63;;;;;;;25.06;30.43;97539.00;5069914;28;20055;-81
2021/09/24 06:31:22;;;;;;;5.82;1.00;;;;;;;26.26;28.42;97543.03;5069217;28;20033;-82
2021/09/24 06:33:49;;;;;;;3.58;1.15;;;;;;;26.14;28.35;97557.22;5070494;28;21415;-81
2021/09/24 06:36:18;;;;;;;3.50;1.13;;;;;;;25.55;29.07;97563.81;5065451;28;20078;-80
2021/09/24 06:38:45;;;;;;;3.17;1.17;;;;;;;25.33;29.56;97558.13;5072184;28;20127;-81
2021/09/24 06:41:11;;;;;;;4.90;1.00;;;;;;;26.13;28.26;97550.81;5071843;28;20029;-81
2021/09/24 06:43:37;;;;;;;5.93;0.90;;;;;;;25.90;28.91;97568.94;5072745;28;20063;-81
2021/09/24 06:46:03;;;;;;;4.15;1.15;;;;;;;25.34;29.71;97559.72;5059840;28;20029;-80
2021/09/24 06:48:29;;;;;;;3.38;0.82;;;;;;;26.64;28.12;97565.25;5072760;28;20468;-81
2021/09/24 06:50:55;;;;;;;2.42;0.68;;;;;;;26.43;28.12;97560.47;5073226;28;20048;-81
2021/09/24 06:53:21;;;;;;;2.08;0.88;;;;;;;26.59;28.01;97565.88;5072083;28;20110;-82
2021/09/24 06:55:47;;;;;;;4.00;0.73;;;;;;;26.89;27.59;97562.22;5066956;28;20036;-81
2021/09/24 06:58:13;;;;;;;1.90;0.65;;;;;;;26.69;27.52;97568.25;5072660;28;20047;-81
2021/09/24 07:00:39;;;;;;;4.32;0.95;;;;;;;26.00;28.74;97573.34;5072348;28;20553;-82
2021/09/24 07:03:05;;;;;;;3.60;1.05;;;;;;;26.12;28.53;97574.53;5072411;28;20492;-81
2021/09/24 07:05:31;;;;;;;1.48;0.75;;;;;;;26.02;29.23;97581.34;5072874;28;20035;-81
2021/09/24 07:07:57;;;;;;;5.07;1.05;;;;;;;25.30;29.91;97575.88;5072295;28;20377;-81
2021/09/24 07:10:24;;;;;;;5.47;1.20;;;;;;;25.66;29.85;97578.25;5065083;28;20488;-80
2021/09/24 07:12:50;;;;;;;4.13;1.73;;;;;;;26.59;28.19;97582.75;5072608;28;20025;-81
2021/09/24 07:15:16;;;;;;;1.35;0.80;;;;;;;26.92;27.70;97591.50;5072587;28;20105;-80
2021/09/24 07:17:42;;;;;;;2.88;0.90;;;;;;;26.89;27.79;97592.44;5072188;28;20035;-81
2021/09/24 07:20:09;;;;;;;5.13;1.45;;;;;;;25.41;29.89;97588.31;5072943;28;20036;-80
2021/09/24 07:22:35;;;;;;;5.00;1.10;;;;;;;23.89;31.79;97591.59;5072986;28;20029;-80
2021/09/24 07:25:01;;;;;;;4.13;1.75;;;;;;;24.25;31.97;97603.34;5072604;28;20047;-81
2021/09/24 07:27:27;;;;;;;4.28;1.10;;;;;;;25.61;29.79;97595.72;5070765;28;20035;-81
2021/09/24 07:29:53;;;;;;;6.55;1.00;;;;;;;26.70;28.26;97603.63;5062628;28;20040;-80
2021/09/24 07:32:19;;;;;;;2.85;0.90;;;;;;;26.63;27.89;97606.72;5051744;28;20039;-81
2021/09/24 07:34:45;;;;;;;5.90;1.00;;;;;;;26.28;28.64;97605.28;5079570;28;20495;-80
2021/09/24 07:37:12;;;;;;;5.35;1.30;;;;;;;26.59;28.05;97605.28;5073020;28;20035;-81
2021/09/24 07:39:39;;;;;;;6.07;0.90;;;;;;;26.32;28.48;97608.75;5073264;28;20036;-80
2021/09/24 07:42:06;;;;;;;3.20;0.90;;;;;;;26.62;28.27;97607.97;5087192;28;20438;-81
2021/09/24 07:44:32;;;;;;;5.40;1.30;;;;;;;25.77;28.86;97593.50;5070685;28;20040;-81
2021/09/24 07:46:58;;;;;;;4.60;1.35;;;;;;;26.28;28.80;97610.91;5061215;28;20090;-81
2021/09/24 07:49:25;;;;;;;2.38;1.17;;;;;;;26.00;28.21;97606.31;5057569;28;20086;-81
2021/09/24 07:51:53;;;;;;;6.85;1.10;;;;;;;25.51;28.46;97608.91;5068284;28;20033;-81
2021/09/24 07:54:21;;;;;;;5.55;1.35;;;;;;;26.12;28.14;97616.75;5072450;28;20048;-81
2021/09/24 07:56:49;;;;;;;5.18;1.38;;;;;;;25.87;28.23;97625.31;5071868;28;20079;-81
2021/09/24 07:59:15;;;;;;;2.80;0.90;;;;;;;26.14;27.84;97611.44;5073281;28;20043;-80
2021/09/24 08:01:41;;;;;;;3.47;0.93;;;;;;;26.04;28.53;97604.19;5074985;28;20090;-82
2021/09/24 08:04:07;;;;;;;6.32;1.45;;;;;;;25.67;28.61;97597.47;5076026;28;20020;-81
2021/09/24 08:06:33;;;;;;;2.25;0.77;;;;;;;25.65;28.44;97608.41;5076590;28;20044;-81
2021/09/24 08:08:59;;;;;;;4.43;1.02;;;;;;;25.28;29.19;97604.44;5076059;28;20032;-81
2021/09/24 08:11:25;;;;;;;2.65;1.02;;;;;;;26.37;27.75;97608.13;5076035;28;20074;-81
2021/09/24 08:13:51;;;;;;;10.90;1.35;;;;;;;26.39;27.59;97604.88;5075923;28;20079;-81
2021/09/24 08:16:17;;;;;;;2.78;1.20;;;;;;;25.55;28.50;97605.97;5075909;28;20127;-83
2021/09/24 08:18:43;;;;;;;6.30;1.20;;;;;;;25.68;28.36;97615.13;5075739;28;20025;-82
2021/09/24 08:21:09;;;;;;;4.45;1.10;;;;;;;25.59;29.14;97609.44;5073973;28;20102;-81
2021/09/24 08:23:37;;;;;;;5.40;1.55;;;;;;;25.43;29.25;97613.19;5074978;28;20035;-80
2021/09/24 08:26:05;;;;;;;3.33;1.48;;;;;;;25.76;28.98;97608.81;5075912;28;20032;-80
2021/09/24 08:28:31;;;;;;;2.65;1.10;;;;;;;25.66;29.47;97631.69;5076473;28;20058;-81
2021/09/24 08:30:57;;;;;;;4.38;1.00;;;;;;;26.64;28.24;97630.03;5079385;28;20036;-81
2021/09/24 08:33:23;;;;;;;6.35;1.15;;;;;;;26.40;27.64;97632.56;5058036;28;20086;-81
2021/09/24 08:35:50;;;;;;;7.10;1.17;;;;;;;25.54;29.30;97627.69;5061907;28;20502;-81
2021/09/24 08:38:16;;;;;;;6.15;1.10;;;;;;;25.83;28.30;97630.28;5075262;28;20028;-81
2021/09/24 08:40:42;;;;;;;4.25;1.55;;;;;;;25.38;28.76;97639.84;5073526;28;20045;-82
2021/09/24 08:43:11;;;;;;;4.25;1.10;;;;;;;25.28;29.03;97657.06;5072406;28;20040;-80
2021/09/24 08:45:37;;;;;;;4.57;1.10;;;;;;;25.88;27.96;97652.97;5069950;28;20476;-81
2021/09/24 08:48:06;;;;;;;4.50;1.00;;;;;;;26.68;27.03;97668.06;5073483;28;20445;-81
2021/09/24 08:50:35;;;;;;;5.65;1.20;;;;;;;26.67;26.60;97649.63;5074872;28;20059;-81
2021/09/24 08:53:03;;;;;;;4.57;1.20;;;;;;;25.61;28.14;97677.25;5071400;28;20049;-80
2021/09/24 08:55:29;;;;;;;3.45;1.08;;;;;;;24.87;28.41;97655.19;5075432;28;20119;-81
2021/09/24 08:57:56;;;;;;;5.05;1.42;;;;;;;25.20;28.36;97686.63;5075202;28;20033;-81
2021/09/24 09:00:22;;;;;;;7.63;1.40;;;;;;;26.23;26.81;97681.88;5073090;28;20036;-82
2021/09/24 09:02:57;;;;;;;3.83;1.23;;;;;;;25.65;26.97;97687.13;5074187;28;20116;-81
2021/09/24 09:05:25;;;;;;;6.75;1.98;;;;;;;24.45;28.54;97664.91;5074902;28;20028;-80
2021/09/24 09:08:05;;;;;;;9.73;1.30;;;;;;;24.19;30.20;97702.53;5065945;28;20025;-80
2021/09/24 09:10:41;;;;;;;5.20;1.33;;;;;;;24.47;28.70;97694.09;5065142;28;20116;-81
2021/09/24 09:13:10;;;;;;;9.25;1.30;;;;;;;25.33;28.00;97695.84;5075427;28;20363;-80
2021/09/24 09:15:37;;;;;;;5.85;1.40;;;;;;;25.19;27.76;97691.47;5075095;28;20491;-81
2021/09/24 09:18:03;;;;;;;3.00;1.05;;;;;;;25.26;28.39;97699.66;5074597;28;20033;-80
2021/09/24 09:20:31;;;;;;;5.35;1.10;;;;;;;25.36;27.98;97694.94;5074575;28;20037;-81
2021/09/24 09:23:00;;;;;;;2.65;0.93;;;;;;;25.68;27.12;97696.69;5071043;28;20591;-80
2021/09/24 09:25:31;;;;;;;7.10;1.23;;;;;;;25.77;27.13;97702.38;5095099;28;20038;-81
2021/09/24 09:27:58;;;;;;;;;;;;;;;25.80;27.09;97718.38;5072904;28;20060;-80
2021/09/24 09:30:25;;;;;;;4.90;1.70;;;;;;;25.13;27.66;97714.97;5073430;28;19951;-81
2021/09/24 09:32:59;;;;;;;6.10;1.88;;;;;;;25.73;27.38;97713.78;5071943;28;20051;-80
2021/09/24 09:35:27;;;;;;;2.72;1.10;;;;;;;25.91;27.23;97711.13;5074196;28;20041;-80
2021/09/24 09:37:53;;;;;;;4.72;1.20;;;;;;;26.35;26.73;97716.84;5072548;28;20090;-80
2021/09/24 09:40:21;;;;;;;4.55;1.10;;;;;;;26.91;25.86;97717.50;5057222;28;20040;-81
2021/09/24 09:42:49;;;;;;;5.30;1.15;;;;;;;27.54;25.42;97733.16;5071116;28;20031;-81
2021/09/24 09:45:18;;;;;;;7.78;1.40;;;;;;;26.33;26.88;97733.38;5072601;28;20082;-80
2021/09/24 09:47:47;;;;;;;8.02;1.67;;;;;;;25.67;27.79;97731.69;5073972;28;20083;-80
2021/09/24 09:50:25;;;;;;;7.90;1.50;;;;;;;26.24;26.81;97728.47;5074206;28;20029;-81
2021/09/24 09:53:07;;;;;;;4.72;1.10;;;;;;;26.51;26.63;97730.72;5073487;28;20036;-81
2021/09/24 09:55:38;;;;;;;7.15;1.30;;;;;;;26.30;27.03;97723.06;5073893;28;20033;-81
2021/09/24 09:58:08;;;;;;;5.78;1.35;;;;;;;27.12;26.27;97732.81;5074374;28;20035;-80
2021/09/24 10:00:51;;;;;;;7.80;1.37;;;;;;;26.53;26.64;97731.84;5073691;28;20041;-81
2021/09/24 10:03:25;;;;;;;7.85;1.50;;;;;;;25.95;27.50;97725.09;5073453;28;20515;-80
2021/09/24 10:05:51;;;;;;;4.97;1.40;;;;;;;26.44;26.81;97737.38;5072284;28;20447;-80
2021/09/24 10:08:21;;;;;;;5.20;1.17;;;;;;;26.69;26.73;97745.69;5073797;28;20492;-81
2021/09/24 10:11:02;;;;;;;2.83;1.03;;;;;;;26.77;26.17;97740.59;5073980;28;20033;-81
2021/09/24 10:13:52;;;;;;;2.22;1.08;;;;;;;27.09;26.00;97745.78;5074125;28;20036;-80
2021/09/24 10:16:19;;;;;;;5.72;1.52;;;;;;;26.40;27.34;97758.44;5074484;28;20036;-81
2021/09/24 10:18:46;;;;;;;4.60;1.20;;;;;;;25.94;27.31;97762.88;5075250;28;20048;-81
2021/09/24 10:21:12;;;;;;;4.65;1.45;;;;;;;26.34;26.92;97765.94;5073830;28;20040;-80
2021/09/24 10:23:38;;;;;;;4.93;1.38;;;;;;;27.07;26.08;97768.00;5079323;28;20036;-81
2021/09/24 10:26:09;;;;;;;6.07;1.95;;;;;;;26.91;26.25;97768.22;5076952;28;20064;-80
2021/09/24 10:28:38;;;;;;;3.58;1.20;;;;;;;26.63;26.66;97774.91;5073820;28;20048;-80
2021/09/24 10:31:04;;;;;;;2.58;1.30;;;;;;;25.61;27.92;97782.06;5072130;28;20040;-80
2021/09/24 10:34:00;;;;;;;4.40;1.38;;;;;;;26.64;26.30;97779.28;5070297;28;20058;-81
2021/09/24 10:36:55;;;;;;;3.47;1.00;;;;;;;26.67;26.14;97772.75;5073217;28;20036;-80
2021/09/24 10:39:30;;;;;;;5.13;1.00;;;;;;;27.55;25.43;97777.00;5073232;28;20040;-80
2021/09/24 10:42:33;;;;;;;2.97;0.90;;;;;;;26.86;25.53;97785.75;5073705;28;20043;-80
2021/09/24 10:45:26;;;;;;;3.58;1.23;;;;;;;27.44;25.00;97791.56;5072573;28;20178;-80
2021/09/24 10:47:54;;;;;;;2.75;0.77;;;;;;;28.16;24.58;97799.44;5073173;28;20033;-81
2021/09/24 10:50:33;;;;;;;3.90;0.70;;;;;;;27.98;24.60;97771.94;5066557;28;20041;-81
2021/09/24 10:53:17;;;;;;;4.65;0.90;;;;;;;27.40;25.39;97790.88;5073403;28;20105;-80
2021/09/24 10:55:45;;;;;;;1.38;0.57;;;;;;;27.63;25.51;97781.91;5066145;28;20097;-81
2021/09/24 10:58:26;;;;;;;4.00;0.98;;;;;;;26.66;25.94;97782.44;5073230;28;20051;-81
2021/09/24 11:00:59;;;;;;;4.53;0.73;;;;;;;26.96;25.99;97778.09;5066525;28;20440;-81
2021/09/24 11:03:28;;;;;;;4.32;0.82;;;;;;;26.48;26.71;97783.09;5072125;28;20047;-81
2021/09/24 11:06:04;;;;;;;1.85;0.60;;;;;;;26.81;26.08;97783.50;5072982;28;20553;-81
2021/09/24 11:08:33;;;;;;;1.45;0.93;;;;;;;26.67;26.28;97790.44;5073589;28;20032;-80
2021/09/24 11:11:15;;;;;;;1.75;0.70;;;;;;;27.46;25.52;97793.91;5071922;28;20093;-81
2021/09/24 11:13:44;;;;;;;4.88;0.73;;;;;;;26.71;26.71;97791.09;5068534;28;20045;-81
2021/09/24 11:16:16;;;;;;;4.80;0.80;;;;;;;26.60;26.32;97787.88;5053416;28;20057;-80
2021/09/24 11:19:01;;;;;;;1.55;0.70;;;;;;;26.36;27.23;97783.13;5073065;28;20473;-82
2021/09/24 11:21:39;;;;;;;3.88;1.10;;;;;;;27.03;26.45;97783.47;5054890;28;20452;-82
2021/09/24 11:24:25;;;;;;;3.67;1.00;;;;;;;26.90;25.61;97786.38;5076597;28;20052;-81
2021/09/24 11:27:00;;;;;;;5.25;0.98;;;;;;;27.85;25.30;97790.25;5066980;28;20028;-81
2021/09/24 11:29:29;;;;;;;2.63;0.70;;;;;;;27.58;24.96;97773.25;5073095;28;20119;-81
2021/09/24 11:32:01;;;;;;;5.28;0.90;;;;;;;27.20;24.90;97777.16;5071385;28;20039;-81
2021/09/24 11:34:50;;;;;;;3.28;0.77;;;;;;;27.68;24.62;97783.34;5072528;28;20032;-81
2021/09/24 11:37:24;;;;;;;2.28;0.60;;;;;;;28.61;24.08;97776.13;5076941;28;20032;-81